Kenilworth, United Kingdom
Current Conditions -  °F | °C
As of 9:50 AM on Saturday 29 Nov 2014 (Local Time) from EGBE Reporting Station
Haze Haze  
Wind Chill: 50°   Ceiling: 700
Heat Index: 50°   Visibility: 2.1mi
Dew Point: 50°   Wind: 5mph
Humidity: 100%   Direction: 80°E
Pressure: 29.85"   Gusts: NA
Location:  52.35°N, 1.58°W
Report Text: EGBE 290950Z 08004KT 040V110 3500 BR OVC007 10/10 Q1011
Loading
Personal Weather Stations






























Interactive Weather Map New forecast layout! Learn more

10-Day Weather Forecast

Advertisements
Track Severe Weather on mobile